Time;durP1;ratioP1;P1;durP2;ratioP2;P2;SDS_P1;SDS_P2;PMS_P1;PMS_P2;Temp;Humidity;BMP_temperature;BMP_pressure;BME280_temperature;BME280_humidity;BME280_pressure;Samples;Min_cycle;Max_cycle;Signal;HPM_P1;HPM_P2
2024/04/04 00:02:16;;;;;;;;;;;;;;;17.92;51.34;98429.39;68029;1275;1015915;-64
2024/04/04 00:05:19;;;;;;;;;;;;;;;17.84;51.60;98428.27;68040;1275;1017587;-65
2024/04/04 00:08:22;;;;;;;;;;;;;;;17.86;51.82;98431.27;68003;1275;1016478;-65
2024/04/04 00:11:24;;;;;;;;;;;;;;;18.10;51.14;98429.34;68018;1275;1016353;-64
2024/04/04 00:14:27;;;;;;;;;;;;;;;18.10;51.08;98426.45;68040;1275;1016200;-65
2024/04/04 00:17:29;;;;;;;;;;;;;;;17.98;51.39;98422.88;68061;1275;1016800;-65
2024/04/04 00:20:31;;;;;;;;;;;;;;;18.04;51.12;98425.14;67958;1275;1016311;-65
2024/04/04 00:23:34;;;;;;;;;;;;;;;18.00;51.39;98424.27;67968;1275;1016427;-65
2024/04/04 00:26:36;;;;;;;;;;;;;;;18.02;51.40;98422.85;67962;1275;1017266;-65
2024/04/04 00:29:39;;;;;;;;;;;;;;;18.07;51.47;98421.60;68020;1275;1016446;-65
2024/04/04 00:32:41;;;;;;;;;;;;;;;18.13;51.43;98424.77;68043;1275;1018196;-65
2024/04/04 00:35:44;;;;;;;;;;;;;;;18.09;51.37;98424.41;68021;1275;1019493;-65
2024/04/04 00:38:46;;;;;;;;;;;;;;;18.00;51.67;98423.21;68008;1275;1016362;-65
2024/04/04 00:41:48;;;;;;;;;;;;;;;17.76;52.50;98424.27;67984;1275;1015814;-65
2024/04/04 00:44:51;;;;;;;;;;;;;;;17.81;52.50;98422.69;68057;1275;1018133;-65
2024/04/04 00:47:53;;;;;;;;;;;;;;;17.66;52.96;98431.64;68032;1275;1016404;-65
2024/04/04 00:50:56;;;;;;;;;;;;;;;17.90;52.13;98431.83;68052;1275;1016471;-65
2024/04/04 00:53:59;;;;;;;;;;;;;;;17.71;52.62;98431.44;67980;1275;1016291;-65
2024/04/04 00:57:01;;;;;;;;;;;;;;;17.71;52.66;98431.24;67988;1275;1016430;-65
2024/04/04 01:00:04;;;;;;;;;;;;;;;17.43;53.65;98426.20;67967;1275;1016406;-66
2024/04/04 01:03:06;;;;;;;;;;;;;;;17.48;53.65;98425.90;68007;1275;1016468;-66
2024/04/04 01:06:08;;;;;;;;;;;;;;;17.60;53.18;98422.20;68050;1275;1016215;-65
2024/04/04 01:09:11;;;;;;;;;;;;;;;17.58;53.40;98425.79;67999;1275;1016993;-65
2024/04/04 01:12:13;;;;;;;;;;;;;;;17.58;53.41;98424.59;67997;1275;1017710;-65
2024/04/04 01:15:16;;;;;;;;;;;;;;;17.59;53.13;98421.66;68044;1275;1020018;-65
2024/04/04 01:18:18;;;;;;;;;;;;;;;17.54;53.46;98420.91;67997;1275;1016194;-65
2024/04/04 01:21:21;;;;;;;;;;;;;;;17.63;53.13;98422.86;67991;1275;1019514;-65
2024/04/04 01:24:23;;;;;;;;;;;;;;;17.76;52.71;98425.66;67991;1275;1017666;-65
2024/04/04 01:27:26;;;;;;;;;;;;;;;17.97;52.30;98425.65;67987;1275;1016337;-65
2024/04/04 01:30:28;;;;;;;;;;;;;;;17.91;52.21;98424.81;68014;1275;1016109;-65
2024/04/04 01:33:31;;;;;;;;;;;;;;;17.82;52.49;98425.79;68035;1275;1016634;-65
2024/04/04 01:36:33;;;;;;;;;;;;;;;17.83;52.36;98421.79;67987;1275;1016485;-65
2024/04/04 01:39:36;;;;;;;;;;;;;;;17.77;52.47;98422.36;67968;1275;1016436;-65
2024/04/04 01:42:38;;;;;;;;;;;;;;;17.88;52.40;98419.54;68026;1275;1016118;-65
2024/04/04 01:45:40;;;;;;;;;;;;;;;17.84;52.51;98419.23;67969;1275;1016114;-65
2024/04/04 01:48:42;;;;;;;;;;;;;;;17.62;53.25;98418.68;68013;1275;1016266;-65
2024/04/04 01:51:45;;;;;;;;;;;;;;;17.67;53.50;98418.92;67987;1275;1016312;-65
2024/04/04 01:54:47;;;;;;;;;;;;;;;17.72;53.38;98418.13;68006;1275;1018743;-65
2024/04/04 01:57:49;;;;;;;;;;;;;;;17.64;53.11;98412.73;67944;1275;1016301;-65
2024/04/04 02:00:52;;;;;;;;;;;;;;;17.60;52.99;98414.70;67997;1275;1016482;-65
2024/04/04 02:03:54;;;;;;;;;;;;;;;17.54;53.07;98413.14;68001;1275;1016376;-65
2024/04/04 02:06:56;;;;;;;;;;;;;;;17.32;53.79;98411.80;68009;1275;1016533;-65
2024/04/04 02:09:59;;;;;;;;;;;;;;;17.40;53.58;98411.29;68036;1275;1019544;-66
2024/04/04 02:13:04;;;;;;;;;;;;;;;17.62;52.83;98410.10;67988;1275;1016327;-65
2024/04/04 02:16:08;;;;;;;;;;;;;;;17.42;53.41;98408.23;68060;1275;1016493;-64
2024/04/04 02:19:11;;;;;;;;;;;;;;;17.25;54.11;98410.58;67986;1275;1017643;-65
2024/04/04 02:22:13;;;;;;;;;;;;;;;17.41;53.79;98402.39;68031;1275;1016107;-65
2024/04/04 02:25:15;;;;;;;;;;;;;;;17.46;53.77;98401.18;68011;1275;1016491;-65
2024/04/04 02:28:18;;;;;;;;;;;;;;;17.52;53.96;98401.60;67991;1275;1016192;-65
2024/04/04 02:31:20;;;;;;;;;;;;;;;17.40;54.06;98402.25;67983;1275;1016170;-64
2024/04/04 02:34:23;;;;;;;;;;;;;;;17.29;54.33;98400.13;68035;1275;1016087;-64
2024/04/04 02:37:25;;;;;;;;;;;;;;;17.39;54.12;98396.66;68030;1275;1016793;-65
2024/04/04 02:40:28;;;;;;;;;;;;;;;17.41;54.17;98393.17;67995;1275;1016430;-65
2024/04/04 02:43:31;;;;;;;;;;;;;;;17.37;54.69;98389.42;68006;1275;1016276;-64
2024/04/04 02:46:35;;;;;;;;;;;;;;;17.44;54.55;98392.71;67943;1275;1016359;-65
2024/04/04 02:49:37;;;;;;;;;;;;;;;17.45;54.20;98395.02;68009;1275;1016267;-65
2024/04/04 02:52:40;;;;;;;;;;;;;;;17.59;53.67;98391.04;67980;1275;1016298;-66
2024/04/04 02:55:42;;;;;;;;;;;;;;;17.52;53.86;98393.87;67979;1275;1017832;-65
2024/04/04 02:58:44;;;;;;;;;;;;;;;17.25;54.45;98393.45;67997;1275;1018897;-66
2024/04/04 03:01:47;;;;;;;;;;;;;;;17.16;54.77;98395.01;68030;1275;1016438;-65
2024/04/04 03:04:49;;;;;;;;;;;;;;;17.25;54.53;98395.15;67997;1275;1017661;-65
2024/04/04 03:07:52;;;;;;;;;;;;;;;17.34;54.29;98394.33;67975;1275;1016339;-64
2024/04/04 03:10:54;;;;;;;;;;;;;;;17.33;54.53;98395.47;67951;1275;1016575;-65
2024/04/04 03:13:56;;;;;;;;;;;;;;;17.33;54.60;98395.29;67992;1275;1016469;-65
2024/04/04 03:16:58;;;;;;;;;;;;;;;17.47;54.37;98391.13;68017;1275;1015937;-65
2024/04/04 03:20:02;;;;;;;;;;;;;;;17.53;53.85;98387.72;68010;1275;1016430;-65
2024/04/04 03:23:04;;;;;;;;;;;;;;;17.39;54.25;98389.32;67976;1275;1018732;-65
2024/04/04 03:26:27;;;;;;;;;;;;;;;17.38;54.10;98395.77;67983;1275;1016492;-65
2024/04/04 03:29:29;;;;;;;;;;;;;;;17.30;54.38;98397.75;68006;1275;1016849;-65
2024/04/04 03:32:32;;;;;;;;;;;;;;;17.28;54.48;98402.37;67983;1275;1019160;-65
2024/04/04 03:35:35;;;;;;;;;;;;;;;17.28;54.41;98407.66;68016;1275;1016455;-65
2024/04/04 03:38:37;;;;;;;;;;;;;;;17.22;54.70;98409.98;68023;1275;1016507;-65
2024/04/04 03:41:39;;;;;;;;;;;;;;;17.33;54.36;98410.73;68026;1275;1016903;-65
2024/04/04 03:44:42;;;;;;;;;;;;;;;17.33;54.16;98411.77;68000;1275;1016479;-65
2024/04/04 03:51:08;;;;;;;;;;;;;;;17.22;54.51;98417.90;68025;1275;1016484;-65
2024/04/04 03:54:10;;;;;;;;;;;;;;;17.21;54.30;98412.16;67959;1275;1016066;-65
2024/04/04 03:57:15;;;;;;;;;;;;;;;17.05;54.83;98419.50;68004;1275;1016461;-65
2024/04/04 04:00:17;;;;;;;;;;;;;;;17.15;54.62;98421.81;68044;1275;1016221;-65
2024/04/04 04:03:20;;;;;;;;;;;;;;;16.98;55.26;98419.77;68040;1275;1016126;-64
2024/04/04 04:06:22;;;;;;;;;;;;;;;16.99;55.22;98424.15;68000;1275;1018617;-65
2024/04/04 04:09:25;;;;;;;;;;;;;;;17.00;55.34;98424.92;67976;1275;1016385;-65
2024/04/04 04:12:27;;;;;;;;;;;;;;;17.15;54.74;98422.31;67965;1275;1016326;-65
2024/04/04 04:15:29;;;;;;;;;;;;;;;16.97;55.15;98415.81;67987;1275;1016468;-65
2024/04/04 04:18:32;;;;;;;;;;;;;;;16.95;55.39;98413.05;68000;1275;1016244;-64
2024/04/04 04:21:34;;;;;;;;;;;;;;;17.23;54.46;98412.38;67940;1275;1016367;-65
2024/04/04 04:24:37;;;;;;;;;;;;;;;17.19;54.37;98414.15;67971;1275;1016062;-65
2024/04/04 04:27:39;;;;;;;;;;;;;;;17.01;55.12;98422.02;68047;1275;1016472;-65
2024/04/04 04:30:42;;;;;;;;;;;;;;;16.37;57.29;98423.50;68049;1275;1016511;-65
2024/04/04 04:33:44;;;;;;;;;;;;;;;16.24;58.00;98421.64;68029;1275;1016422;-64
2024/04/04 04:36:46;;;;;;;;;;;;;;;16.71;56.47;98422.63;68000;1275;1016494;-65
2024/04/04 04:39:49;;;;;;;;;;;;;;;16.59;56.91;98425.51;67969;1275;1015862;-64
2024/04/04 04:42:51;;;;;;;;;;;;;;;17.03;55.57;98423.64;67976;1275;1016993;-65
2024/04/04 04:45:53;;;;;;;;;;;;;;;17.11;55.38;98422.52;68053;1275;1018651;-65
2024/04/04 04:48:56;;;;;;;;;;;;;;;17.24;55.37;98424.67;68049;1275;1016488;-65
2024/04/04 04:51:58;;;;;;;;;;;;;;;17.33;55.29;98432.80;68052;1275;1018403;-65
2024/04/04 04:55:00;;;;;;;;;;;;;;;17.40;55.22;98435.48;68051;1275;1016389;-64
2024/04/04 04:58:03;;;;;;;;;;;;;;;17.52;54.92;98439.87;68004;1275;1016458;-64
2024/04/04 05:01:05;;;;;;;;;;;;;;;17.11;56.25;98440.52;67999;1275;1016039;-65
2024/04/04 05:04:09;;;;;;;;;;;;;;;17.33;55.82;98440.56;68030;1275;1016375;-65
2024/04/04 05:07:11;;;;;;;;;;;;;;;17.38;55.86;98442.38;67997;1275;1016327;-65
2024/04/04 05:10:13;;;;;;;;;;;;;;;17.42;56.03;98443.59;67980;1275;1015774;-65
2024/04/04 05:13:16;;;;;;;;;;;;;;;17.33;56.32;98443.73;68001;1275;1016381;-65
2024/04/04 05:16:18;;;;;;;;;;;;;;;17.26;56.48;98444.79;68047;1275;1016483;-65
2024/04/04 05:19:21;;;;;;;;;;;;;;;17.20;56.87;98445.36;68043;1275;1016654;-65
2024/04/04 05:22:23;;;;;;;;;;;;;;;17.22;56.87;98448.15;67989;1275;1018753;-65
2024/04/04 05:25:27;;;;;;;;;;;;;;;17.34;56.47;98445.74;68024;1275;1016081;-65
2024/04/04 05:28:31;;;;;;;;;;;;;;;17.38;56.64;98439.27;67987;1275;1016390;-65
2024/04/04 05:31:33;;;;;;;;;;;;;;;17.56;56.47;98439.79;67965;1275;1015913;-65
2024/04/04 05:34:36;;;;;;;;;;;;;;;17.47;57.01;98446.67;67994;1275;1016020;-65
2024/04/04 05:37:38;;;;;;;;;;;;;;;17.64;56.89;98448.02;68043;1275;1016052;-66
2024/04/04 05:40:41;;;;;;;;;;;;;;;17.89;56.60;98459.44;68027;1275;1016315;-65
2024/04/04 05:43:43;;;;;;;;;;;;;;;17.95;56.46;98458.06;68001;1275;1016307;-64
2024/04/04 05:46:46;;;;;;;;;;;;;;;17.95;56.59;98450.22;67969;1275;1016727;-65
2024/04/04 05:49:49;;;;;;;;;;;;;;;17.91;57.03;98450.23;68011;1275;1016446;-65
2024/04/04 05:52:51;;;;;;;;;;;;;;;18.02;57.06;98448.86;68026;1275;1016226;-65
2024/04/04 05:55:54;;;;;;;;;;;;;;;18.04;57.16;98446.71;67995;1275;1016454;-65
2024/04/04 05:58:56;;;;;;;;;;;;;;;18.05;57.31;98448.39;67997;1275;1016246;-65
2024/04/04 06:01:58;;;;;;;;;;;;;;;18.17;57.48;98460.30;65433;1275;5377034;-65
2024/04/04 06:05:01;;;;;;;;;;;;;;;18.56;56.30;98465.07;68023;1275;1016442;-65
2024/04/04 06:08:03;;;;;;;;;;;;;;;18.90;55.64;98467.27;68054;1275;1016411;-65
2024/04/04 06:11:05;;;;;;;;;;;;;;;19.01;55.25;98468.29;68044;1275;1016633;-65
2024/04/04 06:14:08;;;;;;;;;;;;;;;19.01;55.59;98461.73;68006;1275;1016424;-65
2024/04/04 06:17:10;;;;;;;;;;;;;;;19.21;55.33;98460.75;68015;1275;1016464;-64
2024/04/04 06:20:12;;;;;;;;;;;;;;;19.33;55.12;98470.33;68030;1275;1016333;-64
2024/04/04 06:23:15;;;;;;;;;;;;;;;19.47;55.22;98470.27;68041;1275;1016292;-65
2024/04/04 06:26:17;;;;;;;;;;;;;;;19.73;54.85;98473.10;68041;1275;1016582;-65
2024/04/04 06:29:22;;;;;;;;;;;;;;;19.58;55.62;98468.55;68031;1275;1016098;-64
2024/04/04 06:32:25;;;;;;;;;;;;;;;19.65;55.72;98473.44;68050;1275;1016496;-65
2024/04/04 06:35:28;;;;;;;;;;;;;;;19.80;55.16;98471.70;68034;1275;1017260;-65
2024/04/04 06:38:30;;;;;;;;;;;;;;;19.75;55.79;98467.56;68004;1275;1016456;-64
2024/04/04 06:41:32;;;;;;;;;;;;;;;20.02;54.85;98464.63;67996;1275;1016304;-65
2024/04/04 06:44:35;;;;;;;;;;;;;;;20.07;55.13;98459.46;68019;1275;1016419;-64
2024/04/04 06:47:37;;;;;;;;;;;;;;;20.35;54.43;98456.70;68024;1275;1016293;-64
2024/04/04 06:50:39;;;;;;;;;;;;;;;20.40;54.34;98455.04;67992;1275;1016420;-65
2024/04/04 06:53:41;;;;;;;;;;;;;;;20.65;54.44;98455.39;68012;1275;1017130;-64
2024/04/04 06:56:44;;;;;;;;;;;;;;;21.02;53.78;98458.73;68031;1275;1019417;-65
2024/04/04 06:59:46;;;;;;;;;;;;;;;21.28;53.35;98464.70;68007;1275;1016491;-65
2024/04/04 07:02:49;;;;;;;;;;;;;;;21.40;52.78;98466.00;68003;1275;1015548;-65
2024/04/04 07:05:51;;;;;;;;;;;;;;;21.44;52.06;98475.69;68050;1275;1015880;-64
2024/04/04 07:08:54;;;;;;;;;;;;;;;21.33;51.39;98482.60;68038;1275;1016781;-63
2024/04/04 07:11:57;;;;;;;;;;;;;;;21.32;51.08;98485.97;68018;1275;1016484;-64
2024/04/04 07:15:00;;;;;;;;;;;;;;;21.27;51.06;98484.37;68031;1275;1016383;-65
2024/04/04 07:18:02;;;;;;;;;;;;;;;21.12;51.85;98485.33;68081;1275;1016301;-64
2024/04/04 07:21:06;;;;;;;;;;;;;;;21.14;51.94;98486.33;68032;1275;1017201;-64
2024/04/04 07:24:09;;;;;;;;;;;;;;;21.38;51.74;98486.48;68030;1275;1016340;-64
2024/04/04 07:27:11;;;;;;;;;;;;;;;21.41;52.23;98489.01;68022;1275;1016442;-64
2024/04/04 07:30:13;;;;;;;;;;;;;;;21.63;51.66;98490.71;68026;1275;1015590;-65
2024/04/04 07:33:15;;;;;;;;;;;;;;;22.24;50.69;98490.96;68026;1275;1016554;-64
2024/04/04 07:36:18;;;;;;;;;;;;;;;22.37;50.62;98489.66;68041;1275;1016298;-64
2024/04/04 07:39:20;;;;;;;;;;;;;;;22.70;49.96;98486.36;68078;1275;1016187;-64
2024/04/04 07:42:23;;;;;;;;;;;;;;;22.81;49.94;98490.06;68073;1275;1016000;-65
2024/04/04 07:45:25;;;;;;;;;;;;;;;23.19;48.84;98486.91;68035;1275;1016442;-65
2024/04/04 07:48:28;;;;;;;;;;;;;;;23.36;48.74;98489.02;68003;1275;1016973;-65
2024/04/04 07:51:30;;;;;;;;;;;;;;;23.50;47.47;98491.70;68067;1275;1016113;-64
2024/04/04 07:54:32;;;;;;;;;;;;;;;23.83;46.59;98490.46;68046;1275;1016421;-65
2024/04/04 07:57:35;;;;;;;;;;;;;;;24.09;46.23;98491.27;68007;1275;1016252;-64
2024/04/04 08:00:38;;;;;;;;;;;;;;;24.34;45.10;98488.08;68053;1275;1016242;-64
2024/04/04 08:03:41;;;;;;;;;;;;;;;24.25;45.96;98491.08;68068;1275;1016488;-64
2024/04/04 08:06:44;;;;;;;;;;;;;;;24.16;45.39;98484.14;68008;1275;1016327;-64
2024/04/04 08:09:46;;;;;;;;;;;;;;;24.36;45.02;98488.89;67998;1275;1016288;-64
2024/04/04 08:12:51;;;;;;;;;;;;;;;24.37;44.95;98486.75;68042;1275;1016445;-64
2024/04/04 08:15:54;;;;;;;;;;;;;;;24.49;44.37;98483.11;68032;1275;1016455;-64
2024/04/04 08:18:56;;;;;;;;;;;;;;;24.53;43.98;98483.19;68030;1275;1016210;-65
2024/04/04 08:21:58;;;;;;;;;;;;;;;24.67;43.19;98485.86;68040;1275;1016641;-64
2024/04/04 08:25:01;;;;;;;;;;;;;;;24.69;43.99;98484.55;68054;1275;1016497;-64
2024/04/04 08:28:04;;;;;;;;;;;;;;;24.75;43.15;98481.18;68045;1275;1016194;-65
2024/04/04 08:31:07;;;;;;;;;;;;;;;24.81;42.50;98476.98;68018;1275;1015851;-65
2024/04/04 08:34:10;;;;;;;;;;;;;;;25.22;42.00;98475.93;68017;1275;1016408;-64
2024/04/04 08:37:12;;;;;;;;;;;;;;;25.56;42.02;98474.90;68017;1275;1016206;-64
2024/04/04 08:40:14;;;;;;;;;;;;;;;25.52;42.09;98473.60;68056;1275;1016469;-65
2024/04/04 08:43:17;;;;;;;;;;;;;;;25.69;41.08;98468.36;68040;1275;1016561;-65
2024/04/04 08:46:20;;;;;;;;;;;;;;;25.75;41.32;98470.79;67970;1275;1016272;-65
2024/04/04 08:49:22;;;;;;;;;;;;;;;26.12;41.37;98470.02;68003;1275;1016496;-65
2024/04/04 08:52:24;;;;;;;;;;;;;;;26.48;40.75;98468.43;68044;1275;1016551;-64
2024/04/04 08:55:27;;;;;;;;;;;;;;;26.85;39.17;98464.55;68062;1275;1016718;-65
2024/04/04 08:58:29;;;;;;;;;;;;;;;26.96;38.32;98464.13;68043;1275;1016418;-64
2024/04/04 09:01:31;;;;;;;;;;;;;;;26.52;38.43;98464.89;68045;1275;1017036;-65
2024/04/04 09:04:37;;;;;;;;;;;;;;;26.15;38.67;98463.84;67998;1275;1016773;-65
2024/04/04 09:07:39;;;;;;;;;;;;;;;25.85;38.18;98467.52;68058;1275;1016472;-64
2024/04/04 09:10:42;;;;;;;;;;;;;;;25.73;38.25;98467.47;68046;1275;1016499;-65
2024/04/04 09:13:45;;;;;;;;;;;;;;;25.62;38.18;98471.02;68073;1275;1019009;-64
2024/04/04 09:16:48;;;;;;;;;;;;;;;25.73;38.57;98475.92;68008;1275;1016337;-64
2024/04/04 09:19:50;;;;;;;;;;;;;;;25.81;38.39;98468.35;68010;1275;1016509;-65
2024/04/04 09:22:56;;;;;;;;;;;;;;;25.71;38.47;98468.15;68077;1275;1016097;-65
2024/04/04 09:25:58;;;;;;;;;;;;;;;25.78;37.88;98470.02;68008;1275;1016330;-65
2024/04/04 09:29:01;;;;;;;;;;;;;;;25.61;37.75;98470.67;68016;1275;1016119;-64
2024/04/04 09:32:03;;;;;;;;;;;;;;;25.48;37.22;98470.90;67999;1275;1016442;-64
2024/04/04 09:35:05;;;;;;;;;;;;;;;25.23;37.50;98467.99;68041;1275;1017055;-65
2024/04/04 09:38:09;;;;;;;;;;;;;;;25.13;36.78;98465.26;67944;1275;1016438;-64
2024/04/04 09:41:12;;;;;;;;;;;;;;;24.77;36.97;98466.02;68034;1275;1017015;-65
2024/04/04 09:44:14;;;;;;;;;;;;;;;24.35;36.85;98465.52;67994;1275;1016323;-65
2024/04/04 09:47:17;;;;;;;;;;;;;;;24.14;36.78;98464.17;68018;1275;1016474;-65
2024/04/04 09:50:22;;;;;;;;;;;;;;;23.79;35.58;98464.52;68059;1275;1016429;-64
2024/04/04 09:53:25;;;;;;;;;;;;;;;23.10;37.00;98466.49;68010;1275;1016387;-65
2024/04/04 09:56:27;;;;;;;;;;;;;;;23.14;36.92;98465.88;68055;1275;1019002;-65
2024/04/04 09:59:29;;;;;;;;;;;;;;;23.21;38.12;98464.54;68059;1275;1016280;-62
2024/04/04 10:02:32;;;;;;;;;;;;;;;23.43;37.65;98462.96;67993;1275;1016381;-65
2024/04/04 10:05:34;;;;;;;;;;;;;;;23.24;37.36;98465.61;68028;1275;1016313;-65
2024/04/04 10:08:37;;;;;;;;;;;;;;;22.86;38.06;98466.55;67998;1275;1016905;-64
2024/04/04 10:11:40;;;;;;;;;;;;;;;22.79;38.45;98459.27;68034;1275;1016669;-64
2024/04/04 10:14:42;;;;;;;;;;;;;;;22.90;38.12;98460.75;68003;1275;1015818;-65
2024/04/04 10:17:45;;;;;;;;;;;;;;;23.17;38.08;98455.09;68000;1275;1019582;-65
2024/04/04 10:20:47;;;;;;;;;;;;;;;23.51;37.27;98452.44;68030;1275;1016459;-65
2024/04/04 10:23:51;;;;;;;;;;;;;;;23.98;37.44;98451.70;68034;1275;1016690;-65
2024/04/04 10:26:54;;;;;;;;;;;;;;;24.48;37.38;98452.04;68060;1275;1016067;-64
2024/04/04 10:29:56;;;;;;;;;;;;;;;24.80;37.03;98452.14;67977;1275;1016438;-64
2024/04/04 10:32:59;;;;;;;;;;;;;;;24.86;35.23;98450.33;68061;1275;1016577;-64
2024/04/04 10:36:03;;;;;;;;;;;;;;;24.71;35.51;98453.17;68042;1275;1016365;-65
2024/04/04 10:39:05;;;;;;;;;;;;;;;24.51;35.12;98454.42;68006;1275;1016441;-64
2024/04/04 10:42:10;;;;;;;;;;;;;;;24.49;34.34;98453.14;68055;1275;1016489;-65
2024/04/04 10:45:12;;;;;;;;;;;;;;;24.65;35.26;98453.98;68003;1275;1016372;-65
2024/04/04 10:48:15;;;;;;;;;;;;;;;25.28;34.79;98455.04;67995;1275;1016391;-64
2024/04/04 10:51:17;;;;;;;;;;;;;;;25.29;34.03;98452.90;67920;1275;1016456;-65
2024/04/04 10:54:20;;;;;;;;;;;;;;;24.94;34.62;98458.44;68019;1275;1016428;-65
2024/04/04 10:57:23;;;;;;;;;;;;;;;24.73;34.69;98460.70;68057;1275;1016301;-65
2024/04/04 11:00:25;;;;;;;;;;;;;;;24.60;34.71;98459.84;67978;1275;1016222;-65
2024/04/04 11:03:28;;;;;;;;;;;;;;;24.22;34.98;98459.97;68052;1275;1016485;-65
2024/04/04 11:06:30;;;;;;;;;;;;;;;24.01;35.30;98467.10;68063;1275;1020055;-64
2024/04/04 11:09:33;;;;;;;;;;;;;;;23.92;35.87;98463.67;68046;1275;1016399;-65
2024/04/04 11:12:36;;;;;;;;;;;;;;;23.88;35.92;98465.30;67982;1275;1018203;-65
2024/04/04 11:15:38;;;;;;;;;;;;;;;23.76;35.24;98460.23;68042;1275;1016495;-65
2024/04/04 11:18:41;;;;;;;;;;;;;;;23.74;35.49;98455.12;68055;1275;1016553;-65
2024/04/04 11:21:44;;;;;;;;;;;;;;;23.68;35.47;98457.07;67984;1275;1016260;-64
2024/04/04 11:24:46;;;;;;;;;;;;;;;23.58;35.00;98456.22;68050;1275;1018308;-65
2024/04/04 11:27:49;;;;;;;;;;;;;;;23.68;35.88;98460.19;68043;1275;1016543;-65
2024/04/04 11:30:52;;;;;;;;;;;;;;;23.73;35.56;98461.20;67990;1275;1016631;-65
2024/04/04 11:33:54;;;;;;;;;;;;;;;23.67;35.47;98464.55;68072;1275;1016734;-65
2024/04/04 11:36:57;;;;;;;;;;;;;;;23.66;36.08;98466.10;68035;1275;1016359;-63
2024/04/04 11:39:59;;;;;;;;;;;;;;;23.47;36.02;98462.48;68023;1275;1019126;-64
2024/04/04 11:43:01;;;;;;;;;;;;;;;23.13;36.45;98463.19;67991;1275;1016338;-65
2024/04/04 11:46:07;;;;;;;;;;;;;;;23.05;36.53;98467.36;68001;1275;1015756;-63
2024/04/04 11:49:09;;;;;;;;;;;;;;;23.12;36.44;98467.93;67985;1275;1016493;-65
2024/04/04 11:52:11;;;;;;;;;;;;;;;23.32;36.42;98462.39;68015;1275;1017974;-64
2024/04/04 11:55:14;;;;;;;;;;;;;;;23.32;36.56;98462.73;67980;1275;1016468;-63
2024/04/04 11:58:16;;;;;;;;;;;;;;;23.43;35.75;98457.60;68025;1275;1016063;-65
2024/04/04 12:01:19;;;;;;;;;;;;;;;23.45;36.14;98458.20;68049;1275;1016285;-65
2024/04/04 12:04:22;;;;;;;;;;;;;;;23.67;36.24;98459.15;68008;1275;1016172;-65
2024/04/04 12:07:24;;;;;;;;;;;;;;;23.93;36.46;98459.65;68035;1275;1016040;-65
2024/04/04 12:10:27;;;;;;;;;;;;;;;24.13;35.79;98458.14;68047;1275;1016384;-65
2024/04/04 12:13:29;;;;;;;;;;;;;;;24.11;35.45;98462.94;67990;1275;1018401;-65
2024/04/04 12:16:32;;;;;;;;;;;;;;;23.88;35.56;98461.34;67966;1275;1016651;-65
2024/04/04 12:19:35;;;;;;;;;;;;;;;24.25;35.96;98457.39;68017;1275;1016430;-64
2024/04/04 12:22:38;;;;;;;;;;;;;;;24.85;34.85;98452.42;68045;1275;1016452;-65
2024/04/04 12:25:40;;;;;;;;;;;;;;;24.82;35.09;98452.45;68001;1275;1016114;-65
2024/04/04 12:28:42;;;;;;;;;;;;;;;24.43;34.82;98455.46;68025;1275;1016353;-64
2024/04/04 12:31:45;;;;;;;;;;;;;;;24.18;35.41;98453.70;68027;1275;1016347;-65
2024/04/04 12:34:47;;;;;;;;;;;;;;;24.00;35.82;98457.13;68001;1275;1019834;-65
2024/04/04 12:37:50;;;;;;;;;;;;;;;23.92;35.30;98456.14;67975;1275;1015721;-64
2024/04/04 12:40:52;;;;;;;;;;;;;;;23.57;35.67;98461.08;68031;1275;1016499;-65
2024/04/04 12:43:54;;;;;;;;;;;;;;;23.34;35.89;98458.52;68036;1275;1015816;-65
2024/04/04 12:46:59;;;;;;;;;;;;;;;23.25;36.33;98460.65;68053;1275;1016349;-64
2024/04/04 12:50:01;;;;;;;;;;;;;;;23.04;36.07;98465.42;68051;1275;1016313;-64
2024/04/04 12:53:05;;;;;;;;;;;;;;;22.76;36.52;98468.71;68057;1275;1016162;-63
2024/04/04 12:56:08;;;;;;;;;;;;;;;22.59;37.04;98465.77;67993;1275;1016351;-64
2024/04/04 12:59:10;;;;;;;;;;;;;;;22.44;37.41;98465.41;68002;1275;1018477;-64
2024/04/04 13:02:13;;;;;;;;;;;;;;;22.41;37.52;98463.00;68063;1275;1016856;-65
2024/04/04 13:05:15;;;;;;;;;;;;;;;22.39;37.51;98463.67;68041;1275;1016345;-65
2024/04/04 13:08:18;;;;;;;;;;;;;;;22.41;37.66;98460.19;67989;1275;1016132;-64
2024/04/04 13:11:20;;;;;;;;;;;;;;;22.42;37.62;98457.38;67967;1275;1016369;-64
2024/04/04 13:14:22;;;;;;;;;;;;;;;22.74;37.76;98457.54;68063;1275;1016401;-64
2024/04/04 13:17:25;;;;;;;;;;;;;;;22.95;37.22;98459.10;68088;1275;1016496;-64
2024/04/04 13:20:27;;;;;;;;;;;;;;;23.05;37.16;98458.52;68030;1275;1016477;-65
2024/04/04 13:23:30;;;;;;;;;;;;;;;23.12;37.39;98457.45;68008;1275;1016374;-65
2024/04/04 13:26:32;;;;;;;;;;;;;;;23.21;36.93;98452.40;67990;1275;1019901;-64
2024/04/04 13:29:35;;;;;;;;;;;;;;;23.17;36.76;98454.44;68016;1275;1016930;-64
2024/04/04 13:32:38;;;;;;;;;;;;;;;23.14;37.30;98460.54;67997;1275;1017074;-64
2024/04/04 13:35:41;;;;;;;;;;;;;;;22.93;37.54;98459.32;68047;1275;1016155;-64
2024/04/04 13:38:43;;;;;;;;;;;;;;;22.73;37.51;98460.73;68063;1275;1016542;-63
2024/04/04 13:41:46;;;;;;;;;;;;;;;22.55;37.56;98461.17;68012;1275;1015722;-65
2024/04/04 13:44:48;;;;;;;;;;;;;;;22.42;37.90;98459.84;67992;1275;1016308;-64
2024/04/04 13:47:51;;;;;;;;;;;;;;;22.33;37.92;98457.77;68002;1275;1016117;-65
2024/04/04 13:50:53;;;;;;;;;;;;;;;22.14;38.27;98462.35;68062;1275;1018804;-65
2024/04/04 13:53:56;;;;;;;;;;;;;;;22.01;38.15;98463.77;68068;1275;1018838;-65
2024/04/04 13:56:59;;;;;;;;;;;;;;;21.87;38.08;98468.23;68021;1275;1016235;-65
2024/04/04 14:00:05;;;;;;;;;;;;;;;21.98;38.94;98464.88;68058;1275;1016477;-65
2024/04/04 14:03:08;;;;;;;;;;;;;;;21.94;38.58;98465.47;68028;1275;1015697;-65
2024/04/04 14:06:11;;;;;;;;;;;;;;;21.96;38.59;98470.13;67992;1275;1016087;-65
2024/04/04 14:09:14;;;;;;;;;;;;;;;22.00;39.00;98470.34;68087;1275;1016492;-65
2024/04/04 14:12:17;;;;;;;;;;;;;;;22.13;39.06;98468.99;67987;1275;1016420;-65
2024/04/04 14:15:19;;;;;;;;;;;;;;;22.11;38.68;98463.06;68045;1275;1016174;-64
2024/04/04 14:18:22;;;;;;;;;;;;;;;22.05;38.82;98460.70;68080;1275;1016422;-65
2024/04/04 14:21:24;;;;;;;;;;;;;;;22.01;39.01;98453.47;68050;1275;1018199;-65
2024/04/04 14:24:27;;;;;;;;;;;;;;;22.11;38.78;98456.29;68008;1275;1018676;-64
2024/04/04 14:27:29;;;;;;;;;;;;;;;22.16;39.17;98452.02;68027;1275;1016470;-63
2024/04/04 14:30:31;;;;;;;;;;;;;;;22.21;39.21;98450.64;68053;1275;1016430;-63
2024/04/04 14:33:34;;;;;;;;;;;;;;;22.11;39.10;98443.27;68076;1275;1017361;-64
2024/04/04 14:36:38;;;;;;;;;;;;;;;21.77;39.65;98440.00;68016;1275;1016454;-64
2024/04/04 14:39:40;;;;;;;;;;;;;;;21.72;40.00;98442.95;68075;1275;1016447;-65
2024/04/04 14:42:43;;;;;;;;;;;;;;;21.78;40.29;98439.55;67981;1275;1016390;-64
2024/04/04 14:45:48;;;;;;;;;;;;;;;22.07;39.92;98441.22;68034;1275;1016515;-64
2024/04/04 14:48:51;;;;;;;;;;;;;;;22.22;40.36;98441.30;68005;1275;1016148;-64
2024/04/04 14:51:53;;;;;;;;;;;;;;;22.51;39.92;98440.10;68040;1275;1016407;-64
2024/04/04 14:54:56;;;;;;;;;;;;;;;23.05;39.39;98438.61;68009;1275;1016430;-64
2024/04/04 14:57:58;;;;;;;;;;;;;;;23.56;39.12;98429.11;67974;1275;1016491;-65
2024/04/04 15:01:01;;;;;;;;;;;;;;;24.12;38.18;98422.33;67938;1275;1016174;-64
2024/04/04 15:04:03;;;;;;;;;;;;;;;24.47;37.97;98411.91;67952;1275;1016409;-64
2024/04/04 15:07:05;;;;;;;;;;;;;;;24.53;37.22;98411.20;68009;1275;1016659;-63
2024/04/04 15:10:08;;;;;;;;;;;;;;;24.27;37.78;98413.27;68041;1275;1016306;-64
2024/04/04 15:13:10;;;;;;;;;;;;;;;24.55;37.47;98408.40;68053;1275;1016158;-64
2024/04/04 15:16:12;;;;;;;;;;;;;;;24.88;36.86;98413.04;68060;1275;1016332;-64
2024/04/04 15:19:15;;;;;;;;;;;;;;;25.11;36.44;98404.53;68040;1275;1016510;-64
2024/04/04 15:22:17;;;;;;;;;;;;;;;25.53;36.31;98404.17;68057;1275;1016417;-64
2024/04/04 15:25:19;;;;;;;;;;;;;;;25.57;34.77;98399.23;67998;1275;1018395;-64
2024/04/04 15:28:22;;;;;;;;;;;;;;;26.24;34.89;98399.89;68013;1275;1016706;-63
2024/04/04 15:31:25;;;;;;;;;;;;;;;28.13;32.79;98400.31;68016;1275;1018179;-65